Time;durP1;ratioP1;P1;durP2;ratioP2;P2;SDS_P1;SDS_P2;PMS_P1;PMS_P2;Temp;Humidity;BMP_temperature;BMP_pressure;BME280_temperature;BME280_humidity;BME280_pressure;Samples;Min_cycle;Max_cycle;Signal;HPM_P1;HPM_P2
2022/10/26 00:00:01;;;;;;;15.98;9.32;;;11.80;99.90;;;;;;5032820;28;20077;-58
2022/10/26 00:02:26;;;;;;;13.10;8.85;;;11.80;99.90;;;;;;5036894;28;20102;-58
2022/10/26 00:04:52;;;;;;;13.13;9.75;;;11.80;99.90;;;;;;5042796;28;20116;-58
2022/10/26 00:07:18;;;;;;;17.70;10.93;;;11.80;99.90;;;;;;5039614;28;20504;-57
2022/10/26 00:09:43;;;;;;;15.18;9.50;;;11.80;99.90;;;;;;5038424;28;20122;-57
2022/10/26 00:12:09;;;;;;;16.70;9.77;;;11.80;99.90;;;;;;5044009;28;20608;-57
2022/10/26 00:14:35;;;;;;;15.40;9.90;;;11.80;99.90;;;;;;5040860;28;20047;-56
2022/10/26 00:17:01;;;;;;;17.15;8.52;;;11.80;99.90;;;;;;5040227;28;20484;-56
2022/10/26 00:19:26;;;;;;;12.82;8.75;;;11.80;99.90;;;;;;5042469;28;20041;-58
2022/10/26 00:21:52;;;;;;;13.02;8.95;;;11.80;99.90;;;;;;5037224;28;20068;-58
2022/10/26 00:24:18;;;;;;;13.23;8.45;;;11.80;99.90;;;;;;5043580;28;20713;-59
2022/10/26 00:26:44;;;;;;;15.98;8.95;;;11.70;99.90;;;;;;5041002;28;20076;-58
2022/10/26 00:29:11;;;;;;;15.35;8.95;;;11.70;99.90;;;;;;5040445;28;20045;-56
2022/10/26 00:31:38;;;;;;;15.55;8.63;;;11.70;99.90;;;;;;5047750;28;20405;-58
2022/10/26 00:34:05;;;;;;;16.08;8.98;;;11.70;99.90;;;;;;5042011;28;20102;-58
2022/10/26 00:36:30;;;;;;;17.08;7.60;;;11.70;99.90;;;;;;5044346;28;20071;-58
2022/10/26 00:38:57;;;;;;;13.48;9.13;;;11.70;99.90;;;;;;5035418;28;20044;-58
2022/10/26 00:41:25;;;;;;;15.20;8.55;;;11.70;99.90;;;;;;5046185;28;20538;-58
2022/10/26 00:43:52;;;;;;;15.70;9.20;;;11.70;99.90;;;;;;5043764;28;20059;-57
2022/10/26 00:46:26;;;;;;;16.55;8.82;;;11.70;99.90;;;;;;5043949;28;20038;-58
2022/10/26 00:48:54;;;;;;;;;;;11.60;99.90;;;;;;5040087;28;20095;-57
2022/10/26 00:51:25;;;;;;;16.20;9.32;;;11.60;99.90;;;;;;5039928;28;19917;-58
2022/10/26 00:53:53;;;;;;;15.15;9.07;;;11.60;99.90;;;;;;5050057;28;20025;-58
2022/10/26 00:56:19;;;;;;;13.90;9.70;;;11.60;99.90;;;;;;5038871;28;20030;-58
2022/10/26 00:58:45;;;;;;;17.15;10.15;;;11.50;99.90;;;;;;5042112;28;20538;-58
2022/10/26 01:01:11;;;;;;;13.90;8.82;;;11.50;99.90;;;;;;5043659;28;20395;-57
2022/10/26 01:03:37;;;;;;;13.93;9.18;;;11.50;99.90;;;;;;5041220;28;20040;-57
2022/10/26 01:06:05;;;;;;;16.27;9.25;;;11.50;99.90;;;;;;5053726;28;20121;-57
2022/10/26 01:08:31;;;;;;;15.48;9.18;;;11.50;99.90;;;;;;5045657;28;20037;-58
2022/10/26 01:10:58;;;;;;;13.38;9.23;;;11.40;99.90;;;;;;5043862;28;20408;-58
2022/10/26 01:13:27;;;;;;;20.13;10.88;;;11.40;99.90;;;;;;5027638;28;20112;-58
2022/10/26 01:16:06;;;;;;;11.38;7.75;;;11.40;99.90;;;;;;5037681;28;20053;-58
2022/10/26 01:19:11;;;;;;;18.25;8.93;;;11.40;99.90;;;;;;5041788;28;20130;-58
2022/10/26 01:21:39;;;;;;;12.43;7.82;;;11.40;99.90;;;;;;5041567;28;20048;-58
2022/10/26 01:24:08;;;;;;;15.82;8.93;;;11.30;99.90;;;;;;5040842;28;20517;-56
2022/10/26 01:27:02;;;;;;;17.23;9.40;;;11.30;99.90;;;;;;5038273;28;20029;-57
2022/10/26 01:29:49;;;;;;;14.52;8.93;;;11.30;99.90;;;;;;5038370;28;20043;-58
2022/10/26 01:32:20;;;;;;;13.93;8.52;;;11.20;99.90;;;;;;5041592;28;20048;-58
2022/10/26 01:35:07;;;;;;;13.57;8.82;;;11.20;99.90;;;;;;5041765;28;20037;-58
2022/10/26 01:37:38;;;;;;;15.70;8.00;;;11.20;99.90;;;;;;5036435;28;20037;-57
2022/10/26 01:40:55;;;;;;;14.93;8.88;;;11.20;99.90;;;;;;5045542;28;20131;-57
2022/10/26 01:43:24;;;;;;;13.95;7.78;;;11.20;99.90;;;;;;5005734;28;20045;-57
2022/10/26 01:45:51;;;;;;;11.95;8.60;;;11.20;99.90;;;;;;5045277;28;20037;-58
2022/10/26 01:48:18;;;;;;;16.70;9.93;;;11.20;99.90;;;;;;5053930;28;20053;-58
2022/10/26 01:50:48;;;;;;;14.30;9.32;;;11.20;99.90;;;;;;5041043;28;20120;-58
2022/10/26 01:53:15;;;;;;;11.60;8.60;;;11.10;99.90;;;;;;5032694;28;20052;-58
2022/10/26 01:55:48;;;;;;;12.30;7.93;;;11.10;99.90;;;;;;5034588;28;20195;-57
2022/10/26 01:58:32;;;;;;;11.45;8.15;;;11.10;99.90;;;;;;5048804;28;20070;-58
2022/10/26 02:01:03;;;;;;;13.73;7.88;;;11.10;99.90;;;;;;5031501;28;20031;-58
2022/10/26 02:03:57;;;;;;;15.13;9.32;;;11.10;99.90;;;;;;5032325;28;20443;-56
2022/10/26 02:06:34;;;;;;;18.02;8.50;;;11.00;99.90;;;;;;5032183;28;20768;-58
2022/10/26 02:09:38;;;;;;;14.93;8.48;;;11.00;99.90;;;;;;5033679;28;20084;-56
2022/10/26 02:12:29;;;;;;;11.90;7.68;;;10.90;99.90;;;;;;5032825;28;20113;-58
2022/10/26 02:15:20;;;;;;;12.63;8.48;;;10.90;99.90;;;;;;5031394;28;20516;-57
2022/10/26 02:18:18;;;;;;;12.18;7.85;;;10.90;99.90;;;;;;5036728;28;20107;-57
2022/10/26 02:20:48;;;;;;;15.30;8.95;;;10.90;99.90;;;;;;5001860;28;20152;-58
2022/10/26 02:23:15;;;;;;;15.50;9.32;;;10.80;99.90;;;;;;5032522;28;20107;-60
2022/10/26 02:25:49;;;;;;;14.60;7.93;;;10.80;99.90;;;;;;5037163;28;20052;-58
2022/10/26 02:28:20;;;;;;;12.02;8.57;;;10.80;99.90;;;;;;5018908;28;20551;-58
2022/10/26 02:30:49;;;;;;;17.52;9.43;;;10.80;99.90;;;;;;5039580;28;20028;-60
2022/10/26 02:33:16;;;;;;;14.02;7.68;;;10.80;99.90;;;;;;5048388;28;20044;-59
2022/10/26 02:35:49;;;;;;;14.95;8.40;;;10.80;99.90;;;;;;5038340;28;20388;-59
2022/10/26 02:38:18;;;;;;;16.33;9.20;;;10.80;99.90;;;;;;5040674;28;20403;-58
2022/10/26 02:40:47;;;;;;;17.05;9.50;;;10.80;99.90;;;;;;5040649;28;20028;-59
2022/10/26 02:43:19;;;;;;;13.73;8.05;;;10.80;99.90;;;;;;5033907;28;20073;-59
2022/10/26 02:46:00;;;;;;;16.13;9.32;;;10.80;99.90;;;;;;5035305;28;20152;-59
2022/10/26 02:48:26;;;;;;;20.33;10.02;;;10.80;99.90;;;;;;5032949;28;20041;-56
2022/10/26 02:51:03;;;;;;;13.75;8.40;;;10.80;99.90;;;;;;5037974;28;20033;-58
2022/10/26 02:53:34;;;;;;;14.20;8.30;;;10.70;99.90;;;;;;5031930;28;20044;-57
2022/10/26 02:56:06;;;;;;;12.25;8.13;;;10.70;99.90;;;;;;5032473;28;20052;-58
2022/10/26 02:58:37;;;;;;;14.88;8.75;;;10.70;99.90;;;;;;5042118;28;20103;-58
2022/10/26 03:01:03;;;;;;;19.70;11.43;;;10.70;99.90;;;;;;5043250;28;20033;-57
2022/10/26 03:03:29;;;;;;;17.10;9.20;;;10.60;99.90;;;;;;5043226;28;20490;-56
2022/10/26 03:08:25;;;;;;;19.58;10.73;;;10.60;99.90;;;;;;5013174;28;20049;-63
2022/10/26 03:10:51;;;;;;;13.85;10.45;;;10.60;99.90;;;;;;5033204;28;21424;-63
2022/10/26 03:13:17;;;;;;;15.93;9.70;;;10.60;99.90;;;;;;4992178;28;20048;-63
2022/10/26 03:15:42;;;;;;;18.05;10.90;;;10.60;99.90;;;;;;5002964;28;20040;-63
2022/10/26 03:18:08;;;;;;;13.50;9.20;;;10.60;99.90;;;;;;5001245;28;20506;-63
2022/10/26 03:20:34;;;;;;;23.45;11.13;;;10.60;99.90;;;;;;5006072;28;20041;-63
2022/10/26 03:23:00;;;;;;;15.52;10.90;;;10.60;99.90;;;;;;5017235;28;20051;-63
2022/10/26 03:25:26;;;;;;;12.35;9.70;;;10.60;99.90;;;;;;5003533;28;20081;-63
2022/10/26 03:28:02;;;;;;;18.67;10.27;;;10.60;99.90;;;;;;5016306;28;20041;-63
2022/10/26 03:30:29;;;;;;;14.65;11.73;;;10.60;99.90;;;;;;5033402;28;20124;-63
2022/10/26 03:32:55;;;;;;;22.35;13.77;;;10.60;99.90;;;;;;5022007;28;20336;-63
2022/10/26 03:35:21;;;;;;;21.65;13.23;;;10.60;99.90;;;;;;5005676;28;20083;-63
2022/10/26 03:37:47;;;;;;;23.52;13.73;;;10.60;99.90;;;;;;5026439;28;20059;-63
2022/10/26 03:40:13;;;;;;;17.83;12.98;;;10.60;99.90;;;;;;4991957;28;20045;-63
2022/10/26 03:42:39;;;;;;;19.88;11.68;;;10.60;99.90;;;;;;5045201;28;20487;-63
2022/10/26 03:45:06;;;;;;;16.73;11.35;;;10.60;99.90;;;;;;5027881;28;20044;-63
2022/10/26 03:47:32;;;;;;;14.63;11.38;;;10.60;99.90;;;;;;5025334;28;20427;-63
2022/10/26 03:49:58;;;;;;;21.80;13.48;;;10.70;99.90;;;;;;5027365;28;20037;-63
2022/10/26 03:52:24;;;;;;;17.05;13.15;;;10.70;99.90;;;;;;5022470;28;20041;-63
2022/10/26 03:54:51;;;;;;;21.42;13.27;;;10.60;99.90;;;;;;5035643;28;20095;-63
2022/10/26 03:57:17;;;;;;;20.77;13.52;;;10.60;99.90;;;;;;5045722;28;20041;-63
2022/10/26 03:59:42;;;;;;;17.33;12.55;;;10.60;99.90;;;;;;5025454;28;20052;-63
2022/10/26 04:02:08;;;;;;;23.88;14.20;;;10.60;99.90;;;;;;5004896;28;20075;-63
2022/10/26 04:04:34;;;;;;;21.15;13.38;;;10.60;99.90;;;;;;5018387;28;20040;-63
2022/10/26 04:06:59;;;;;;;20.13;13.68;;;10.60;99.90;;;;;;5016024;28;20044;-63
2022/10/26 04:09:25;;;;;;;24.13;14.27;;;10.60;99.90;;;;;;5007990;28;20450;-63
2022/10/26 04:11:51;;;;;;;19.23;13.48;;;10.60;99.90;;;;;;5023806;28;20033;-63
2022/10/26 04:14:17;;;;;;;22.60;14.00;;;10.60;99.90;;;;;;5018951;28;20048;-63
2022/10/26 04:16:42;;;;;;;23.67;15.13;;;10.60;99.90;;;;;;5019083;28;20049;-63
2022/10/26 04:19:08;;;;;;;24.85;15.60;;;10.70;99.90;;;;;;5015683;28;20049;-63
2022/10/26 04:21:34;;;;;;;19.23;14.45;;;10.70;99.90;;;;;;5015116;28;20462;-63
2022/10/26 04:24:00;;;;;;;21.05;14.93;;;10.70;99.90;;;;;;5011616;28;20045;-63
2022/10/26 04:26:26;;;;;;;17.70;13.55;;;10.70;99.90;;;;;;5034469;28;20049;-63
2022/10/26 04:28:52;;;;;;;20.55;14.73;;;10.80;99.90;;;;;;5037359;28;20593;-63
2022/10/26 04:31:18;;;;;;;24.85;14.38;;;10.80;99.90;;;;;;5009355;28;20266;-63
2022/10/26 04:33:44;;;;;;;20.17;14.75;;;10.80;99.90;;;;;;5020625;28;20128;-63
2022/10/26 04:36:09;;;;;;;21.23;14.63;;;10.80;99.90;;;;;;5017324;28;20147;-63
2022/10/26 04:38:35;;;;;;;25.27;15.85;;;10.80;99.90;;;;;;5039519;28;20068;-63
2022/10/26 04:41:01;;;;;;;19.50;15.55;;;10.90;99.90;;;;;;4998180;28;20029;-63
2022/10/26 04:43:27;;;;;;;23.42;15.57;;;10.90;99.90;;;;;;5013402;28;20819;-63
2022/10/26 04:45:56;;;;;;;24.02;15.27;;;10.90;99.90;;;;;;5002082;28;20076;-63
2022/10/26 04:48:22;;;;;;;21.23;14.73;;;10.90;99.90;;;;;;5021465;28;20069;-63
2022/10/26 04:50:48;;;;;;;22.65;15.32;;;10.90;99.90;;;;;;5037270;28;20099;-63
2022/10/26 04:53:14;;;;;;;24.70;15.05;;;10.90;99.90;;;;;;5040309;28;20040;-63
2022/10/26 04:55:40;;;;;;;28.92;16.20;;;10.90;99.90;;;;;;5008818;28;20049;-63
2022/10/26 04:58:06;;;;;;;23.33;15.48;;;10.90;99.90;;;;;;5012287;28;20079;-63
2022/10/26 05:00:33;;;;;;;24.15;14.55;;;11.00;99.90;;;;;;5016416;28;21717;-63
2022/10/26 05:03:04;;;;;;;20.38;14.73;;;11.00;99.90;;;;;;5017156;28;20039;-63
2022/10/26 05:05:31;;;;;;;22.70;15.32;;;11.00;99.90;;;;;;4997440;28;20049;-63
2022/10/26 05:07:57;;;;;;;23.13;14.90;;;11.00;99.90;;;;;;5030035;28;20045;-63
2022/10/26 05:10:23;;;;;;;20.85;14.68;;;11.00;99.90;;;;;;5036557;28;20391;-63
2022/10/26 05:12:54;;;;;;;19.00;12.88;;;11.00;99.90;;;;;;5017679;28;20523;-63
2022/10/26 05:15:20;;;;;;;23.67;13.57;;;11.00;99.90;;;;;;5013097;28;20472;-63
2022/10/26 05:17:46;;;;;;;19.17;13.13;;;11.10;99.90;;;;;;5019039;28;20041;-63
2022/10/26 05:20:13;;;;;;;21.70;14.70;;;11.10;99.90;;;;;;5037864;28;20076;-63
2022/10/26 05:22:41;;;;;;;21.08;14.43;;;11.10;99.90;;;;;;5026938;28;20229;-63
2022/10/26 05:25:08;;;;;;;19.90;14.23;;;11.10;99.90;;;;;;5008436;28;20049;-63
2022/10/26 05:27:33;;;;;;;25.80;14.15;;;11.10;99.90;;;;;;5020061;28;20412;-63
2022/10/26 05:29:59;;;;;;;21.50;14.80;;;11.10;99.90;;;;;;5022700;28;20045;-63
2022/10/26 05:32:25;;;;;;;21.67;14.18;;;11.10;99.90;;;;;;5021255;28;20290;-63
2022/10/26 05:34:50;;;;;;;22.90;14.13;;;11.10;99.90;;;;;;5023538;28;20430;-63
2022/10/26 05:37:16;;;;;;;22.13;14.43;;;11.10;99.90;;;;;;5024173;28;20087;-63
2022/10/26 05:39:45;;;;;;;22.58;15.02;;;11.10;99.90;;;;;;5026211;28;20084;-63
2022/10/26 05:42:10;;;;;;;20.92;14.07;;;11.20;99.90;;;;;;5010743;28;20045;-63
2022/10/26 05:44:36;;;;;;;23.42;15.38;;;11.20;99.90;;;;;;5001928;28;20046;-63
2022/10/26 05:47:01;;;;;;;23.15;14.65;;;11.20;99.90;;;;;;5036602;28;20075;-63
2022/10/26 05:49:27;;;;;;;19.75;14.05;;;11.20;99.90;;;;;;5015964;28;20376;-64
2022/10/26 05:51:53;;;;;;;20.33;14.10;;;11.20;99.90;;;;;;5030036;28;20049;-63
2022/10/26 05:54:18;;;;;;;21.08;14.98;;;11.20;99.90;;;;;;5042555;28;20037;-63
2022/10/26 05:56:44;;;;;;;20.33;14.27;;;11.20;99.90;;;;;;5046219;28;20109;-63
2022/10/26 05:59:13;;;;;;;20.10;13.25;;;11.20;99.90;;;;;;5012972;28;20068;-63
2022/10/26 06:01:50;;;;;;;21.08;14.30;;;11.20;99.90;;;;;;5026791;28;20052;-63
2022/10/26 06:04:37;;;;;;;22.25;15.13;;;11.20;99.90;;;;;;5042930;28;20048;-64
2022/10/26 06:07:09;;;;;;;23.25;14.93;;;11.20;99.90;;;;;;5042039;28;20041;-63
2022/10/26 06:09:36;;;;;;;22.42;15.30;;;11.20;99.90;;;;;;5018311;28;20295;-63
2022/10/26 06:12:02;;;;;;;17.70;13.32;;;11.20;99.90;;;;;;5024640;28;20267;-63
2022/10/26 06:14:28;;;;;;;19.77;13.35;;;11.30;99.90;;;;;;5023585;28;20040;-63
2022/10/26 06:17:31;;;;;;;22.92;14.27;;;11.30;99.90;;;;;;5015069;28;20510;-63
2022/10/26 06:20:15;;;;;;;20.80;12.93;;;11.30;99.90;;;;;;5016078;28;20051;-63
2022/10/26 06:23:00;;;;;;;18.20;13.43;;;11.30;99.90;;;;;;5008581;28;20052;-63
2022/10/26 06:25:51;;;;;;;20.45;13.43;;;11.30;99.90;;;;;;5022248;28;20041;-63
2022/10/26 06:28:34;;;;;;;25.63;14.15;;;11.40;99.90;;;;;;5018935;28;20068;-63
2022/10/26 06:31:00;;;;;;;20.45;13.95;;;11.40;99.90;;;;;;5011919;28;20690;-63
2022/10/26 06:33:27;;;;;;;20.45;13.63;;;11.40;99.90;;;;;;5014185;28;20120;-63
2022/10/26 06:36:27;;;;;;;18.25;13.25;;;11.40;99.90;;;;;;5020156;28;20041;-63
2022/10/26 06:39:04;;;;;;;17.63;12.85;;;11.40;99.90;;;;;;4981690;28;20049;-63
2022/10/26 06:41:34;;;;;;;18.20;12.90;;;11.40;99.90;;;;;;4998079;28;20029;-63
2022/10/26 06:44:01;;;;;;;18.15;13.30;;;11.40;99.90;;;;;;5029643;28;20056;-63
2022/10/26 06:46:48;;;;;;;17.58;12.65;;;11.40;99.90;;;;;;4999061;28;21894;-63
2022/10/26 06:49:39;;;;;;;17.50;12.23;;;11.40;99.90;;;;;;5031771;28;20091;-61
2022/10/26 06:52:08;;;;;;;20.08;12.25;;;11.40;99.90;;;;;;5018668;28;20117;-61
2022/10/26 06:54:53;;;;;;;25.58;14.32;;;11.40;99.90;;;;;;5009475;28;20362;-60
2022/10/26 06:57:20;;;;;;;20.42;12.48;;;11.40;99.90;;;;;;5014289;28;20049;-63
2022/10/26 06:59:50;;;;;;;17.60;11.63;;;11.40;99.90;;;;;;5033390;28;20060;-61
2022/10/26 07:02:16;;;;;;;20.15;12.98;;;11.40;99.90;;;;;;5020337;28;20412;-60
2022/10/26 07:04:43;;;;;;;21.08;12.52;;;11.40;99.90;;;;;;5001943;28;20037;-60
2022/10/26 07:07:16;;;;;;;16.67;12.50;;;11.40;99.90;;;;;;5018948;28;20048;-61
2022/10/26 07:09:42;;;;;;;20.70;13.05;;;11.40;99.90;;;;;;5033722;28;20037;-61
2022/10/26 07:12:08;;;;;;;18.73;11.80;;;11.40;99.90;;;;;;5032058;28;20033;-61
2022/10/26 07:14:34;;;;;;;19.23;12.73;;;11.50;99.90;;;;;;5013634;28;20397;-60
2022/10/26 07:16:59;;;;;;;17.85;12.68;;;11.50;99.90;;;;;;5036571;28;20099;-61
2022/10/26 07:19:25;;;;;;;17.80;12.18;;;11.50;99.90;;;;;;5017205;28;20411;-61
2022/10/26 07:21:55;;;;;;;21.33;13.57;;;11.60;99.90;;;;;;5037053;28;20134;-61
2022/10/26 07:24:22;;;;;;;21.75;13.15;;;11.60;99.90;;;;;;5013457;28;20045;-60
2022/10/26 07:26:47;;;;;;;22.90;13.00;;;11.70;99.90;;;;;;5012097;28;20495;-60
2022/10/26 07:29:15;;;;;;;25.70;14.18;;;11.70;99.90;;;;;;5008833;28;20068;-61
2022/10/26 07:31:40;;;;;;;17.05;10.77;;;11.70;99.90;;;;;;5007763;28;20513;-61
2022/10/26 07:34:06;;;;;;;19.35;11.25;;;11.70;99.90;;;;;;5009870;28;20037;-61
2022/10/26 07:36:35;;;;;;;20.58;11.20;;;11.80;99.90;;;;;;5024748;28;20194;-61
2022/10/26 07:39:02;;;;;;;15.48;10.45;;;11.80;99.90;;;;;;5030911;28;20507;-61
2022/10/26 07:41:27;;;;;;;15.55;10.30;;;11.90;99.90;;;;;;5030940;28;20209;-62
2022/10/26 07:43:53;;;;;;;15.35;10.73;;;11.90;99.90;;;;;;5047806;28;20115;-62
2022/10/26 07:46:19;;;;;;;16.98;10.88;;;12.00;99.90;;;;;;5015192;28;20065;-62
2022/10/26 07:48:44;;;;;;;16.38;10.57;;;12.00;99.90;;;;;;5047944;28;20383;-62
2022/10/26 07:51:10;;;;;;;16.60;9.90;;;12.00;99.90;;;;;;5023542;28;20041;-62
2022/10/26 07:53:36;;;;;;;15.80;9.63;;;12.10;99.90;;;;;;5019293;28;20130;-62
2022/10/26 07:56:02;;;;;;;15.82;9.60;;;12.20;99.90;;;;;;5044272;28;20049;-62
2022/10/26 07:58:28;;;;;;;16.08;9.50;;;12.20;99.90;;;;;;5037594;28;20036;-62
2022/10/26 08:00:54;;;;;;;13.82;9.70;;;12.30;99.90;;;;;;5020280;28;20484;-63
2022/10/26 08:03:20;;;;;;;16.30;10.43;;;12.30;99.90;;;;;;5017074;28;20099;-63
2022/10/26 08:05:50;;;;;;;17.40;10.02;;;12.40;99.90;;;;;;5013456;28;20045;-63
2022/10/26 08:08:18;;;;;;;14.35;8.25;;;12.40;99.90;;;;;;5013790;28;22071;-62
2022/10/26 08:10:45;;;;;;;14.50;8.50;;;12.40;99.90;;;;;;5022577;28;20042;-63
2022/10/26 08:13:11;;;;;;;17.40;9.15;;;12.50;99.90;;;;;;5006361;28;20365;-63
2022/10/26 08:15:37;;;;;;;12.05;7.80;;;12.60;99.90;;;;;;5023610;28;20041;-63
2022/10/26 08:18:03;;;;;;;16.10;8.23;;;12.70;99.90;;;;;;5006843;28;20416;-62
2022/10/26 08:20:29;;;;;;;17.27;8.27;;;12.80;99.90;;;;;;5033881;28;20068;-62
2022/10/26 08:22:56;;;;;;;12.02;7.78;;;12.90;99.90;;;;;;5030974;28;20037;-63
2022/10/26 08:25:21;;;;;;;12.27;7.30;;;13.00;99.90;;;;;;4996834;28;20044;-64
2022/10/26 08:27:47;;;;;;;13.05;6.85;;;13.10;99.90;;;;;;4996161;28;20515;-63
2022/10/26 08:30:13;;;;;;;12.93;7.30;;;13.20;99.90;;;;;;5008447;28;20037;-63
2022/10/26 08:32:41;;;;;;;10.20;7.22;;;13.20;99.90;;;;;;5021440;28;20049;-63
2022/10/26 08:35:07;;;;;;;13.00;7.18;;;13.40;99.90;;;;;;5034126;28;20659;-63
2022/10/26 08:37:33;;;;;;;11.10;7.40;;;13.50;99.90;;;;;;5018789;28;20041;-63
2022/10/26 08:39:59;;;;;;;9.40;6.32;;;13.60;99.90;;;;;;5004748;28;20336;-63
2022/10/26 08:42:32;;;;;;;12.38;6.18;;;13.70;99.90;;;;;;5026548;28;20032;-63
2022/10/26 08:45:08;;;;;;;13.20;6.05;;;13.80;99.90;;;;;;5025875;28;20475;-63
2022/10/26 08:47:42;;;;;;;9.50;5.75;;;13.90;99.90;;;;;;4995738;28;20048;-63
2022/10/26 08:50:23;;;;;;;8.25;6.18;;;13.90;99.90;;;;;;5025863;28;20263;-63
2022/10/26 08:53:01;;;;;;;9.18;6.10;;;14.00;99.90;;;;;;5019492;28;20072;-63
2022/10/26 08:55:38;;;;;;;9.32;6.13;;;14.00;99.90;;;;;;4992213;28;20469;-63
2022/10/26 08:58:12;;;;;;;7.43;6.03;;;14.10;99.90;;;;;;5006672;28;20056;-63
2022/10/26 09:00:39;;;;;;;9.25;5.88;;;14.20;99.90;;;;;;5025112;28;20492;-62
2022/10/26 09:03:15;;;;;;;7.10;5.65;;;14.20;99.90;;;;;;5019278;28;20149;-62
2022/10/26 09:05:41;;;;;;;9.13;5.68;;;14.30;99.90;;;;;;5007567;28;20033;-63
2022/10/26 09:08:14;;;;;;;12.15;5.45;;;14.40;99.90;;;;;;5057885;22;20037;-55
2022/10/26 09:10:49;;;;;;;8.95;6.32;;;14.50;99.90;;;;;;5030235;28;20498;-58
2022/10/26 09:13:28;;;;;;;8.88;5.07;;;14.60;99.90;;;;;;5067370;28;20079;-59
2022/10/26 09:16:23;;;;;;;7.47;5.72;;;14.70;99.90;;;;;;5062637;28;20447;-57
2022/10/26 09:18:52;;;;;;;;;;;14.80;99.90;;;;;;5066173;28;20089;-57
2022/10/26 09:21:37;;;;;;;8.05;5.10;;;15.00;99.90;;;;;;5058830;28;19943;-58
2022/10/26 09:24:10;;;;;;;9.00;5.57;;;15.10;99.90;;;;;;5062821;28;20047;-55
2022/10/26 09:26:41;;;;;;;12.20;5.87;;;15.20;99.90;;;;;;5047193;28;20127;-58
2022/10/26 09:29:12;;;;;;;12.35;5.82;;;15.30;99.90;;;;;;5044256;28;20044;-56
2022/10/26 09:31:41;;;;;;;12.10;6.00;;;15.40;99.90;;;;;;5046507;28;20374;-58
2022/10/26 09:34:34;;;;;;;12.25;5.13;;;15.50;99.90;;;;;;5030296;28;20039;-56
2022/10/26 09:37:14;;;;;;;7.30;5.00;;;15.60;99.90;;;;;;5037403;28;20534;-57
2022/10/26 09:39:59;;;;;;;8.25;5.30;;;15.70;99.90;;;;;;5059422;28;20440;-58
2022/10/26 09:42:30;;;;;;;12.57;5.75;;;15.80;99.90;;;;;;5068322;28;20119;-56
2022/10/26 09:45:21;;;;;;;8.60;5.32;;;15.80;99.90;;;;;;5066944;28;20312;-57
2022/10/26 09:47:51;;;;;;;7.15;4.97;;;16.00;99.90;;;;;;5076782;28;20052;-55
2022/10/26 09:50:22;;;;;;;9.82;5.10;;;16.10;99.90;;;;;;5055554;28;21089;-57
2022/10/26 09:52:48;;;;;;;8.40;5.10;;;16.20;99.90;;;;;;5055733;28;20434;-57
2022/10/26 09:55:14;;;;;;;6.65;4.88;;;16.30;99.90;;;;;;5037162;28;20044;-57
2022/10/26 09:57:44;;;;;;;12.55;5.85;;;16.40;99.90;;;;;;5053223;28;20049;-57
2022/10/26 10:00:14;;;;;;;9.43;5.20;;;16.50;99.90;;;;;;5054316;28;20048;-58
2022/10/26 10:02:42;;;;;;;9.98;4.40;;;16.50;99.90;;;;;;5034326;28;20152;-58
2022/10/26 10:05:28;;;;;;;8.23;4.95;;;16.50;99.90;;;;;;5034053;28;20098;-56
2022/10/26 10:08:23;;;;;;;7.55;4.28;;;16.40;99.90;;;;;;5050340;28;20037;-58
2022/10/26 10:11:12;;;;;;;8.27;3.53;;;16.30;99.90;;;;;;5050497;28;20036;-57
2022/10/26 10:13:40;;;;;;;8.90;4.22;;;16.10;99.90;;;;;;5051527;28;21047;-56
2022/10/26 10:16:12;;;;;;;6.78;3.50;;;16.20;99.90;;;;;;5062016;28;20052;-57
2022/10/26 10:18:39;;;;;;;8.70;4.10;;;16.30;99.90;;;;;;5060607;28;20402;-57
2022/10/26 10:21:07;;;;;;;7.10;3.85;;;16.20;99.90;;;;;;5028717;28;20048;-57
2022/10/26 10:23:35;;;;;;;7.20;3.90;;;16.20;99.90;;;;;;5042453;28;20040;-58
2022/10/26 10:26:05;;;;;;;9.45;4.15;;;16.30;99.90;;;;;;5060248;28;20047;-57
2022/10/26 10:28:32;;;;;;;7.72;4.03;;;16.30;99.90;;;;;;5061550;28;20051;-57
2022/10/26 10:31:00;;;;;;;7.70;3.40;;;16.40;99.90;;;;;;5038437;28;20044;-58
2022/10/26 10:33:39;;;;;;;7.63;3.55;;;16.50;99.90;;;;;;5061726;28;20029;-58
2022/10/26 10:36:10;;;;;;;7.07;3.30;;;16.60;99.90;;;;;;5063439;28;20040;-56
2022/10/26 10:38:38;;;;;;;6.18;3.55;;;16.60;99.90;;;;;;5061634;28;20041;-58
2022/10/26 10:41:12;;;;;;;7.82;3.92;;;16.60;99.90;;;;;;5065516;28;20040;-56
2022/10/26 10:43:43;;;;;;;7.78;3.75;;;16.60;99.90;;;;;;5054898;28;20033;-56
2022/10/26 10:46:09;;;;;;;6.85;3.65;;;16.60;99.90;;;;;;5060025;28;20036;-58
2022/10/26 10:48:34;;;;;;;6.82;4.07;;;16.70;99.90;;;;;;5046036;28;20510;-57
2022/10/26 10:51:11;;;;;;;8.43;3.75;;;16.70;99.90;;;;;;5063281;28;20090;-59
2022/10/26 10:53:55;;;;;;;8.85;4.35;;;16.80;99.90;;;;;;5060937;28;20044;-58
2022/10/26 10:56:24;;;;;;;6.38;3.35;;;16.90;99.90;;;;;;5025753;28;20619;-58
2022/10/26 10:58:56;;;;;;;7.43;3.75;;;16.90;99.90;;;;;;5065612;28;20068;-58
2022/10/26 11:01:24;;;;;;;8.25;3.33;;;17.10;99.90;;;;;;5064980;28;20162;-58
2022/10/26 11:04:24;;;;;;;8.20;3.95;;;17.30;99.90;;;;;;5062852;28;20037;-59
2022/10/26 11:06:52;;;;;;;6.63;3.13;;;17.50;99.90;;;;;;5061324;28;20391;-58
2022/10/26 11:09:25;;;;;;;12.25;3.85;;;17.60;99.90;;;;;;5059235;28;20036;-58
2022/10/26 11:12:02;;;;;;;6.63;3.30;;;17.70;99.90;;;;;;5065594;28;20033;-59
2022/10/26 11:14:39;;;;;;;7.95;2.97;;;17.90;99.90;;;;;;5062077;28;20110;-59
2022/10/26 11:17:21;;;;;;;7.10;3.17;;;17.90;99.90;;;;;;5057605;28;20051;-57
2022/10/26 11:19:52;;;;;;;7.82;3.75;;;18.10;99.90;;;;;;5057044;28;20037;-58
2022/10/26 11:22:25;;;;;;;5.55;3.05;;;18.20;99.90;;;;;;5059321;28;20048;-59
2022/10/26 11:25:04;;;;;;;4.95;2.88;;;18.30;99.90;;;;;;5062463;28;20115;-59
2022/10/26 11:27:45;;;;;;;8.13;3.35;;;18.50;99.90;;;;;;5047123;28;20127;-59
2022/10/26 11:30:18;;;;;;;7.72;3.05;;;18.60;99.90;;;;;;5046414;28;20047;-59
2022/10/26 11:32:50;;;;;;;7.05;3.35;;;18.70;99.90;;;;;;5046233;28;20453;-57
2022/10/26 11:35:30;;;;;;;5.88;3.50;;;18.70;99.90;;;;;;5062028;28;20060;-59
2022/10/26 11:38:18;;;;;;;9.60;4.07;;;18.70;99.90;;;;;;5060894;28;20254;-58
2022/10/26 11:41:20;;;;;;;10.55;4.40;;;18.80;99.90;;;;;;5062662;28;20044;-59
2022/10/26 11:43:49;;;;;;;7.22;3.50;;;18.80;99.90;;;;;;5042854;28;20048;-58
2022/10/26 11:46:17;;;;;;;8.52;3.80;;;18.90;99.90;;;;;;5047089;28;20055;-59
2022/10/26 11:48:52;;;;;;;8.43;3.47;;;18.90;99.90;;;;;;5025451;28;20377;-58
2022/10/26 11:51:39;;;;;;;10.15;3.85;;;18.90;99.90;;;;;;5061559;28;20056;-57
2022/10/26 11:54:23;;;;;;;6.97;4.03;;;18.90;99.90;;;;;;5061059;28;20270;-59
2022/10/26 11:56:52;;;;;;;6.80;4.10;;;18.70;99.90;;;;;;5041794;28;20507;-58
2022/10/26 11:59:28;;;;;;;8.73;4.50;;;18.60;99.90;;;;;;5061112;28;20487;-58
2022/10/26 12:02:01;;;;;;;7.68;4.00;;;18.40;99.90;;;;;;5060590;28;20043;-59
2022/10/26 12:04:31;;;;;;;7.03;3.83;;;18.40;99.90;;;;;;5058646;28;20052;-58
2022/10/26 12:07:00;;;;;;;11.65;4.15;;;18.40;99.90;;;;;;5054639;28;20098;-58
2022/10/26 12:09:30;;;;;;;9.75;4.03;;;18.30;99.90;;;;;;5059888;28;20294;-58
2022/10/26 12:12:20;;;;;;;8.23;4.38;;;18.20;99.90;;;;;;5058967;28;20044;-58
2022/10/26 12:15:07;;;;;;;8.25;4.40;;;18.10;99.90;;;;;;5048058;28;20037;-59
2022/10/26 12:17:32;;;;;;;7.10;4.35;;;18.00;99.90;;;;;;5063324;28;20040;-56
2022/10/26 12:20:35;;;;;;;9.23;4.80;;;17.90;99.90;;;;;;5062060;28;20043;-58
2022/10/26 12:23:03;;;;;;;7.15;4.28;;;18.00;99.90;;;;;;5027019;28;20048;-58
2022/10/26 12:25:29;;;;;;;8.80;4.53;;;18.00;99.90;;;;;;5064952;28;20044;-58
2022/10/26 12:27:57;;;;;;;7.13;4.65;;;18.10;99.90;;;;;;5065931;28;20550;-58
2022/10/26 12:30:24;;;;;;;8.88;4.35;;;18.20;99.90;;;;;;5048627;28;20059;-57
2022/10/26 12:32:59;;;;;;;11.18;4.65;;;18.30;99.90;;;;;;5064792;28;20098;-57
2022/10/26 12:35:40;;;;;;;9.75;4.78;;;18.40;99.90;;;;;;5065098;28;20044;-57
2022/10/26 12:38:24;;;;;;;8.32;5.15;;;18.40;99.90;;;;;;5067142;28;20106;-57
2022/10/26 12:41:09;;;;;;;9.32;5.35;;;18.40;99.90;;;;;;5064578;28;20391;-58
2022/10/26 12:43:37;;;;;;;11.77;5.35;;;18.50;99.90;;;;;;5039660;28;20533;-58
2022/10/26 12:46:12;;;;;;;7.45;5.15;;;18.50;99.90;;;;;;5044530;28;20050;-58
2022/10/26 12:48:49;;;;;;;9.75;5.10;;;18.50;99.90;;;;;;5060683;28;20049;-58
2022/10/26 12:51:21;;;;;;;12.93;6.03;;;18.50;99.90;;;;;;5063440;28;20481;-58
2022/10/26 12:54:28;;;;;;;8.38;5.82;;;18.70;99.90;;;;;;5046591;28;20036;-57
2022/10/26 12:56:59;;;;;;;12.30;7.03;;;18.60;99.90;;;;;;5063229;28;20662;-58
2022/10/26 12:59:41;;;;;;;10.15;6.13;;;18.70;99.90;;;;;;5027169;28;20044;-58